Lanseria Airport

Jump to: basic info | weather | frequencies | runways | comments

Related pages: nearby airports | nearby navaids | notams | map

Basic information (top)

Codes: HLA FALA
Location: lon -25.938499, lat 27.926100, elev 4,517 ft / 1,377 m msl
Status: medium_airport
Scheduled airline service: yes
Links: Wikipedia Mobile

Weather (top)

Current conditions (rec'd 2014/04/25 06:00Z):

FALA 250600Z VRB02KT CAVOK 08/03 Q1025 NOSIG

Airport forecast (rec'd 2014/04/24 06:21Z):

TAF TAF FALA 240400Z 2406/2506 24008KT CAVOK 
      BECMG 2407/2409 28012KT 
      BECMG 2416/2418 23007KT 
      BECMG 2420/2422 17005KT TX20/2412ZTN06/2503Z

Frequencies (top)

Verify before use: may be inaccurate or out of date.

APP: 123.7 MHz (JOHANNESBURG APP)
GND: 121.65 MHz (GND)
GTE: 122.85 MHz (APRON)
TWR: 124 MHz (TWR)

Runways (top)

06L/24R: 10,000 x 75 ft (3,048 x 23 m) — paved — lighted — threshold 06L displaced 453 ft (138 m)

06R/24L: 5,775 x 49 ft (1,760 x 15 m) — paved — lighted — threshold 06R displaced 500 ft (152 m)

Latest comments (top)

Delay in MN 460: Any reason for the delay in flight MN ... [read]

Delay at lanseria: This website info is so wrong. Useless ... [read]

Flight Status: The flight status are outdated. Delays ... [read]

lovley airfield: I used this Airfield for additional ... [read]

More... (top)

See also NOTAMs and nearby airports and navaids, or visit the Lanseria Airport page at the main OurAirports website..